Bergen, Germany

2:29 AM CEST on September 05, 2015 (GMT +0200)
Meissendorf | | Change Station
CLOSE
Current Station
Personal Weather Station
Location: Winsen (Aller), NIEDERSACHSEN
Elevation: 138 ft
Nearby Weather Stations

Elev 138 ft 52.73 °N, 9.85 °E | Updated 4 minutes ago

Light Rain
Light Rain Mist
56.1 °F
Feels Like 56.1 °F
N
3.0
Wind Variable Wind from NNW
Gusts 7.0 mph

Today
High -- | Low -- °F
--% Chance of Precip.
Yesterday
High -- | Low -- °F
Precip. -- in
6:36 AM 8:00 PM
Waning Gibbous, 54% visible
Pressure 29.74 in
Visibility 3.1 miles
Clouds Mostly Cloudy 500 ft
Dew Point 49 °F
Humidity 76%
Rainfall 0.04 in
Snow Depth Not available.
UV 0 out of 12
Pollen Not available.
Air Quality Not available.
Flu Activity Not available.
METAR ETHS 050020Z 24012KT 5000 -RA BR BKN005 12/11 Q1007 YLO
Pressure 29.74 in
Visibility 3.1 miles
Clouds Mostly Cloudy 500 ft
Dew Point 49 °F
Humidity 76%
Rainfall 0.04 in
Snow Depth Not available.
UV 0 out of 12
Pollen Not available.
Air Quality Not available.
Flu Activity Not available.
METAR ETHS 050020Z 24012KT 5000 -RA BR BKN005 12/11 Q1007 YLO

10-Day Weather Forecast

×

Almanac

Astronomy

Sep. 05, 2015 Rise Set
Actual Time
Civil Twilight
Nautical Twilight
Astronomical Twilight
Moon
Length of Visible Light
Length of Day
Tomorrow will be .
, % of the Moon is Illuminated

Today's Extremes

Country Highs Country Lows

Community

WunderPhotos

Upload Photos

1,852,351 photos uploaded!

WunderBlogs® & News

Nearby

Air Quality

  Air Quality AQ Index Pollutant
Not available.

Snow Depth

Station Depth Elevation

Earthquake Activity

City Distance Mag. Time & Date
Minimum magnitude displayed is 2.5.

Coastal Water Temperatures

Place Temperature

Stations

Nearby Weather Stations

Station Location Temp. Windchill Dew Point Humidity Wind Precip. Elev Updated Type